Time;durP1;ratioP1;P1;durP2;ratioP2;P2;SDS_P1;SDS_P2;PMS_P1;PMS_P2;Temp;Humidity;BMP_temperature;BMP_pressure;BME280_temperature;BME280_humidity;BME280_pressure;Samples;Min_cycle;Max_cycle;Signal;HPM_P1;HPM_P2
2023/08/06 00:01:03;;;;;;;3.90;2.13;;;;;;;;;;5035866;28;20052;-81
2023/08/06 00:03:48;;;;;;;3.15;2.15;;;;;;;;;;5035641;28;20483;-81
2023/08/06 00:06:34;;;;;;;8.38;2.20;;;;;;;;;;5035925;28;20042;-81
2023/08/06 00:09:19;;;;;;;4.47;1.98;;;;;;;;;;5035658;28;20479;-81
2023/08/06 00:12:05;;;;;;;6.10;2.13;;;;;;;;;;5042052;28;20037;-81
2023/08/06 00:14:52;;;;;;;3.47;2.20;;;;;;;;;;5034591;28;20041;-81
2023/08/06 00:17:38;;;;;;;4.72;2.17;;;;;;;;;;5035624;28;20053;-81
2023/08/06 00:20:23;;;;;;;5.22;2.13;;;;;;;;;;5057406;28;20037;-79
2023/08/06 00:23:09;;;;;;;4.32;2.10;;;;;;;;;;5042816;28;20059;-81
2023/08/06 00:25:54;;;;;;;4.57;2.00;;;;;;;;;;5035693;28;20050;-80
2023/08/06 00:28:39;;;;;;;4.75;2.08;;;;;;;;;;5035096;28;20049;-80
2023/08/06 00:31:25;;;;;;;3.08;2.33;;;;;;;;;;5040811;28;20049;-81
2023/08/06 00:34:11;;;;;;;9.60;2.20;;;;;;;;;;5040856;28;20050;-81
2023/08/06 00:36:56;;;;;;;4.28;1.90;;;;;;;;;;5035042;28;20045;-81
2023/08/06 00:39:41;;;;;;;5.38;2.58;;;;;;;;;;5026961;28;20050;-81
2023/08/06 00:42:26;;;;;;;9.15;1.95;;;;;;;;;;5034950;28;20041;-81
2023/08/06 00:45:11;;;;;;;3.42;2.10;;;;;;;;;;5033868;28;20037;-81
2023/08/06 00:47:57;;;;;;;3.40;1.90;;;;;;;;;;5026483;28;20041;-80
2023/08/06 00:50:43;;;;;;;3.97;2.30;;;;;;;;;;5034735;28;20037;-81
2023/08/06 00:53:28;;;;;;;3.95;2.15;;;;;;;;;;5035003;28;20387;-82
2023/08/06 00:56:15;;;;;;;2.72;2.03;;;;;;;;;;5026489;28;20038;-81
2023/08/06 00:59:00;;;;;;;4.13;2.13;;;;;;;;;;5039823;28;20045;-80
2023/08/06 01:01:46;;;;;;;4.93;1.90;;;;;;;;;;5019883;28;20045;-81
2023/08/06 01:04:33;;;;;;;3.92;2.08;;;;;;;;;;5026161;28;20058;-81
2023/08/06 01:07:42;;;;;;;3.83;1.67;;;;;;;;;;5026932;28;20037;-81
2023/08/06 01:10:46;;;;;;;7.43;2.20;;;;;;;;;;5033086;28;20041;-81
2023/08/06 01:13:31;;;;;;;3.00;2.00;;;;;;;;;;5019269;28;20045;-80
2023/08/06 01:16:18;;;;;;;4.18;2.13;;;;;;;;;;5039850;28;20053;-81
2023/08/06 01:19:03;;;;;;;7.70;2.38;;;;;;;;;;5024435;28;20037;-81
2023/08/06 01:21:48;;;;;;;5.18;1.92;;;;;;;;;;5012261;28;20049;-80
2023/08/06 01:24:35;;;;;;;4.18;1.90;;;;;;;;;;5033975;28;20041;-81
2023/08/06 01:27:32;;;;;;;2.53;1.70;;;;;;;;;;5033783;28;20045;-81
2023/08/06 01:30:35;;;;;;;8.10;1.80;;;;;;;;;;5034009;28;20041;-81
2023/08/06 01:33:22;;;;;;;4.43;1.90;;;;;;;;;;5039733;28;20041;-81
2023/08/06 01:36:09;;;;;;;4.15;1.80;;;;;;;;;;5033805;28;20490;-80
2023/08/06 01:38:54;;;;;;;4.47;1.80;;;;;;;;;;5025283;28;20045;-82
2023/08/06 01:41:39;;;;;;;4.45;2.10;;;;;;;;;;5025046;28;20045;-80
2023/08/06 01:44:24;;;;;;;3.95;2.00;;;;;;;;;;5034026;28;20049;-81
2023/08/06 01:47:10;;;;;;;5.50;2.03;;;;;;;;;;5039180;28;20057;-81
2023/08/06 01:49:56;;;;;;;10.63;2.20;;;;;;;;;;5040299;28;20037;-80
2023/08/06 01:52:41;;;;;;;4.78;2.00;;;;;;;;;;5033593;28;20037;-80
2023/08/06 01:55:28;;;;;;;12.57;2.35;;;;;;;;;;5033851;28;20049;-82
2023/08/06 01:58:14;;;;;;;7.15;1.98;;;;;;;;;;5038276;28;20045;-83
2023/08/06 02:01:01;;;;;;;8.60;2.30;;;;;;;;;;5025377;28;20045;-83
2023/08/06 02:03:47;;;;;;;3.13;2.28;;;;;;;;;;5033831;28;20053;-86
2023/08/06 02:06:32;;;;;;;2.50;2.00;;;;;;;;;;5033548;28;20399;-86
2023/08/06 02:09:17;;;;;;;4.47;2.10;;;;;;;;;;5025168;28;20049;-86
2023/08/06 02:12:04;;;;;;;5.57;1.98;;;;;;;;;;5038833;28;20479;-86
2023/08/06 02:14:48;;;;;;;5.75;2.30;;;;;;;;;;5025131;28;20038;-86
2023/08/06 02:17:35;;;;;;;6.63;2.22;;;;;;;;;;5040033;28;20046;-86
2023/08/06 02:20:20;;;;;;;2.97;2.10;;;;;;;;;;5021277;28;20053;-87
2023/08/06 02:23:06;;;;;;;4.90;2.17;;;;;;;;;;5032606;28;20045;-87
2023/08/06 02:26:02;;;;;;;9.73;2.55;;;;;;;;;;5033335;28;20049;-87
2023/08/06 02:28:48;;;;;;;5.90;2.22;;;;;;;;;;5033325;28;20045;-87
2023/08/06 02:31:33;;;;;;;3.95;2.50;;;;;;;;;;5033858;28;20053;-87
2023/08/06 02:34:19;;;;;;;3.42;2.35;;;;;;;;;;5039202;28;20030;-89
2023/08/06 02:37:05;;;;;;;4.60;2.42;;;;;;;;;;5050221;28;20030;-87
2023/08/06 02:39:51;;;;;;;7.43;2.40;;;;;;;;;;5043525;28;20042;-87
2023/08/06 02:42:37;;;;;;;5.10;2.35;;;;;;;;;;5037324;28;20033;-85
2023/08/06 02:45:22;;;;;;;7.18;2.50;;;;;;;;;;5028803;28;20042;-85
2023/08/06 02:48:08;;;;;;;5.55;2.30;;;;;;;;;;5028699;28;20045;-86
2023/08/06 02:50:58;;;;;;;4.45;2.90;;;;;;;;;;5042810;28;20038;-86
2023/08/06 02:53:43;;;;;;;6.15;2.75;;;;;;;;;;5030957;28;20050;-86
2023/08/06 02:56:31;;;;;;;9.32;2.80;;;;;;;;;;5030387;28;20049;-86
2023/08/06 02:59:26;;;;;;;3.80;2.50;;;;;;;;;;5028934;28;20049;-86
2023/08/06 03:02:26;;;;;;;3.13;2.42;;;;;;;;;;5042612;28;20045;-86
2023/08/06 03:05:37;;;;;;;6.72;2.78;;;;;;;;;;5043359;28;20041;-87
2023/08/06 03:08:23;;;;;;;8.70;2.88;;;;;;;;;;5027979;28;20049;-87
2023/08/06 03:11:10;;;;;;;7.78;2.40;;;;;;;;;;5014600;28;20037;-87
2023/08/06 03:13:56;;;;;;;8.00;2.70;;;;;;;;;;5028147;28;20045;-87
2023/08/06 03:16:41;;;;;;;3.92;2.60;;;;;;;;;;5028263;28;20050;-86
2023/08/06 03:19:27;;;;;;;4.50;2.58;;;;;;;;;;5023174;28;20050;-86
2023/08/06 03:22:13;;;;;;;4.90;2.90;;;;;;;;;;5007212;28;20475;-87
2023/08/06 03:25:03;;;;;;;8.02;3.42;;;;;;;;;;5008381;28;20415;-87
2023/08/06 03:27:47;;;;;;;10.27;3.25;;;;;;;;;;5001896;28;20053;-88
2023/08/06 03:30:35;;;;;;;6.90;3.10;;;;;;;;;;4994933;28;20387;-87
2023/08/06 03:33:22;;;;;;;7.63;3.50;;;;;;;;;;5008668;28;20037;-87
2023/08/06 03:36:07;;;;;;;12.25;3.78;;;;;;;;;;5006990;28;20053;-87
2023/08/06 03:38:53;;;;;;;6.97;3.33;;;;;;;;;;5007929;28;20050;-86
2023/08/06 03:41:38;;;;;;;11.52;3.50;;;;;;;;;;4994363;28;20046;-87
2023/08/06 03:44:23;;;;;;;5.82;3.13;;;;;;;;;;5016189;28;20041;-87
2023/08/06 03:47:09;;;;;;;8.25;2.97;;;;;;;;;;5007904;28;20049;-85
2023/08/06 03:49:55;;;;;;;4.53;2.78;;;;;;;;;;5017781;28;20042;-87
2023/08/06 03:52:41;;;;;;;9.32;3.30;;;;;;;;;;5022277;28;20053;-88
2023/08/06 03:55:26;;;;;;;8.68;3.17;;;;;;;;;;5007997;28;20046;-88
2023/08/06 03:58:12;;;;;;;6.00;2.75;;;;;;;;;;5007784;28;20049;-88
2023/08/06 04:01:02;;;;;;;5.57;2.85;;;;;;;;;;5010366;28;20046;-87
2023/08/06 04:03:53;;;;;;;10.20;3.30;;;;;;;;;;5030341;28;20050;-87
2023/08/06 04:06:39;;;;;;;6.88;3.25;;;;;;;;;;5031458;28;20018;-87
2023/08/06 04:09:28;;;;;;;7.15;3.30;;;;;;;;;;5025113;28;20407;-88
2023/08/06 04:12:14;;;;;;;9.85;3.17;;;;;;;;;;5022181;28;20050;-88
2023/08/06 04:15:03;;;;;;;5.80;2.95;;;;;;;;;;5007638;28;20050;-85
2023/08/06 04:17:49;;;;;;;3.47;2.50;;;;;;;;;;5007956;28;20037;-84
2023/08/06 04:20:35;;;;;;;5.75;2.58;;;;;;;;;;5021116;28;20046;-85
2023/08/06 04:23:21;;;;;;;4.88;2.53;;;;;;;;;;5007315;28;20038;-86
2023/08/06 04:26:06;;;;;;;9.27;2.85;;;;;;;;;;5020994;28;20046;-85
2023/08/06 04:28:54;;;;;;;5.65;2.75;;;;;;;;;;5006458;28;20046;-85
2023/08/06 04:31:39;;;;;;;6.80;2.67;;;;;;;;;;4993615;28;20046;-83
2023/08/06 04:34:25;;;;;;;3.88;2.75;;;;;;;;;;5015542;28;20046;-84
2023/08/06 04:37:10;;;;;;;5.60;3.00;;;;;;;;;;5020852;28;20503;-84
2023/08/06 04:39:55;;;;;;;6.95;2.50;;;;;;;;;;5020524;28;20049;-84
2023/08/06 04:42:40;;;;;;;6.57;2.53;;;;;;;;;;5007050;28;20045;-84
2023/08/06 04:45:26;;;;;;;5.10;2.60;;;;;;;;;;5015888;28;20049;-84
2023/08/06 04:48:12;;;;;;;6.22;2.50;;;;;;;;;;5014283;28;20484;-84
2023/08/06 04:50:57;;;;;;;3.85;2.20;;;;;;;;;;5037017;28;20042;-85
2023/08/06 04:53:43;;;;;;;7.32;2.97;;;;;;;;;;5030025;28;20046;-82
2023/08/06 04:56:29;;;;;;;4.13;2.47;;;;;;;;;;5021902;28;20395;-82
2023/08/06 04:59:14;;;;;;;6.43;2.45;;;;;;;;;;5014896;28;20042;-82
2023/08/06 05:01:59;;;;;;;6.65;2.20;;;;;;;;;;5014389;28;20046;-82
2023/08/06 05:04:45;;;;;;;7.00;2.05;;;;;;;;;;5014470;28;20427;-82
2023/08/06 05:07:30;;;;;;;4.07;2.10;;;;;;;;;;5000148;28;20490;-81
2023/08/06 05:10:16;;;;;;;3.97;2.20;;;;;;;;;;5021257;28;20030;-81
2023/08/06 05:13:01;;;;;;;5.97;2.30;;;;;;;;;;5014199;28;20045;-81
2023/08/06 05:15:46;;;;;;;3.80;2.22;;;;;;;;;;5014444;28;20042;-81
2023/08/06 05:18:34;;;;;;;3.80;2.10;;;;;;;;;;5014760;28;20045;-81
2023/08/06 05:21:18;;;;;;;7.13;2.35;;;;;;;;;;5014337;28;20125;-85
2023/08/06 05:24:08;;;;;;;9.43;2.42;;;;;;;;;;5014993;28;20046;-87
2023/08/06 05:26:54;;;;;;;4.13;2.40;;;;;;;;;;5014936;28;20487;-83
2023/08/06 05:29:39;;;;;;;6.07;2.15;;;;;;;;;;5020461;28;20038;-83
2023/08/06 05:32:25;;;;;;;4.15;2.08;;;;;;;;;;5014411;28;20042;-83
2023/08/06 05:35:11;;;;;;;7.53;2.30;;;;;;;;;;5014330;28;20050;-83
2023/08/06 05:37:56;;;;;;;5.85;2.90;;;;;;;;;;5014272;28;20045;-83
2023/08/06 05:40:42;;;;;;;5.80;2.55;;;;;;;;;;5014422;28;20041;-83
2023/08/06 05:43:27;;;;;;;5.78;3.03;;;;;;;;;;5014174;28;20050;-82
2023/08/06 05:46:13;;;;;;;4.07;2.63;;;;;;;;;;5020914;28;20041;-83
2023/08/06 05:48:58;;;;;;;8.40;3.47;;;;;;;;;;5014096;28;20050;-82
2023/08/06 05:51:44;;;;;;;8.93;3.47;;;;;;;;;;5014665;28;20049;-82
2023/08/06 05:54:30;;;;;;;7.35;3.22;;;;;;;;;;5014647;28;20046;-82
2023/08/06 05:57:15;;;;;;;6.15;3.25;;;;;;;;;;5014009;28;20054;-83
2023/08/06 06:00:02;;;;;;;7.38;3.78;;;;;;;;;;5020296;28;20042;-82
2023/08/06 06:02:57;;;;;;;10.23;4.63;;;;;;;;;;5013637;28;20046;-81
2023/08/06 06:05:43;;;;;;;10.35;3.20;;;;;;;;;;5013734;28;20479;-81
2023/08/06 06:08:28;;;;;;;8.70;3.47;;;;;;;;;;5013806;28;20049;-81
2023/08/06 06:11:14;;;;;;;4.60;2.90;;;;;;;;;;5014039;28;20391;-81
2023/08/06 06:14:01;;;;;;;5.20;2.92;;;;;;;;;;5021399;28;20042;-81
2023/08/06 06:16:46;;;;;;;3.92;2.80;;;;;;;;;;5024510;28;20045;-82
2023/08/06 06:19:32;;;;;;;5.70;2.70;;;;;;;;;;5024144;28;20046;-81
2023/08/06 06:22:17;;;;;;;5.00;2.50;;;;;;;;;;5037326;28;20046;-81
2023/08/06 06:25:03;;;;;;;3.50;2.25;;;;;;;;;;5037490;28;20049;-81
2023/08/06 06:27:50;;;;;;;4.47;2.38;;;;;;;;;;5044113;28;20037;-80
2023/08/06 06:30:35;;;;;;;7.70;2.50;;;;;;;;;;5036903;28;20049;-81
2023/08/06 06:33:21;;;;;;;4.15;2.55;;;;;;;;;;5037148;28;20041;-81
2023/08/06 06:36:07;;;;;;;5.43;2.63;;;;;;;;;;5043512;28;20049;-81
2023/08/06 06:38:52;;;;;;;5.22;3.15;;;;;;;;;;5036998;28;20045;-81
2023/08/06 06:41:38;;;;;;;6.18;3.17;;;;;;;;;;5043778;28;20045;-82
2023/08/06 06:44:30;;;;;;;4.80;2.70;;;;;;;;;;5037210;28;20045;-82
2023/08/06 06:47:15;;;;;;;4.28;2.97;;;;;;;;;;5036966;28;20057;-81
2023/08/06 06:50:02;;;;;;;7.30;3.15;;;;;;;;;;5022030;28;20089;-81
2023/08/06 06:52:47;;;;;;;10.40;6.57;;;;;;;;;;5036957;28;20049;-81
2023/08/06 06:55:34;;;;;;;5.47;3.33;;;;;;;;;;5043212;28;20037;-82
2023/08/06 06:58:44;;;;;;;11.43;7.53;;;;;;;;;;5043702;28;20050;-82
2023/08/06 07:01:30;;;;;;;5.45;3.30;;;;;;;;;;5037355;28;20045;-81
2023/08/06 07:04:15;;;;;;;6.80;2.70;;;;;;;;;;5053004;28;20041;-83
2023/08/06 07:07:01;;;;;;;5.28;3.05;;;;;;;;;;5056801;28;20037;-81
2023/08/06 07:09:46;;;;;;;4.35;2.78;;;;;;;;;;5037889;28;20041;-80
2023/08/06 07:12:32;;;;;;;4.82;2.65;;;;;;;;;;5036706;28;20046;-79
2023/08/06 07:15:18;;;;;;;5.40;3.63;;;;;;;;;;5036418;28;20053;-79
2023/08/06 07:18:03;;;;;;;4.70;3.25;;;;;;;;;;5036524;28;20037;-79
2023/08/06 07:20:53;;;;;;;7.03;4.57;;;;;;;;;;5032421;28;20054;-79
2023/08/06 07:23:38;;;;;;;4.00;3.60;;;;;;;;;;5002104;28;20514;-81
2023/08/06 07:26:24;;;;;;;8.32;4.25;;;;;;;;;;5022414;28;20038;-75
2023/08/06 07:29:09;;;;;;;5.65;3.92;;;;;;;;;;5027540;28;20045;-77
2023/08/06 07:31:55;;;;;;;5.05;3.40;;;;;;;;;;5003175;28;20484;-78
2023/08/06 07:34:40;;;;;;;10.32;3.95;;;;;;;;;;5017813;28;20391;-77
2023/08/06 07:37:29;;;;;;;6.90;3.60;;;;;;;;;;5023982;28;20483;-76
2023/08/06 07:40:15;;;;;;;7.20;3.65;;;;;;;;;;5023946;28;20041;-78
2023/08/06 07:43:02;;;;;;;7.20;3.85;;;;;;;;;;5014862;28;20054;-77
2023/08/06 07:45:47;;;;;;;6.90;3.50;;;;;;;;;;5016307;28;20042;-77
2023/08/06 07:48:32;;;;;;;6.97;3.47;;;;;;;;;;5007308;28;20041;-76
2023/08/06 07:51:18;;;;;;;10.65;3.88;;;;;;;;;;5021134;28;20045;-76
2023/08/06 07:54:04;;;;;;;9.65;4.15;;;;;;;;;;5015307;28;20050;-76
2023/08/06 07:56:49;;;;;;;6.75;3.90;;;;;;;;;;5014942;28;20050;-77
2023/08/06 07:59:35;;;;;;;5.15;3.67;;;;;;;;;;5014539;28;20050;-77
2023/08/06 08:02:22;;;;;;;5.35;3.50;;;;;;;;;;5015721;28;20033;-77
2023/08/06 08:05:08;;;;;;;7.30;3.83;;;;;;;;;;5015878;28;20038;-74
2023/08/06 08:07:52;;;;;;;8.27;3.58;;;;;;;;;;5015329;28;20487;-77
2023/08/06 08:10:38;;;;;;;9.00;3.38;;;;;;;;;;5021614;28;20042;-77
2023/08/06 08:13:24;;;;;;;4.93;3.72;;;;;;;;;;5021986;28;20046;-76
2023/08/06 08:16:10;;;;;;;8.35;3.28;;;;;;;;;;5021862;28;20053;-76
2023/08/06 08:18:55;;;;;;;6.43;2.97;;;;;;;;;;5015068;28;20054;-77
2023/08/06 08:21:41;;;;;;;7.82;3.08;;;;;;;;;;5015320;28;20058;-77
2023/08/06 08:24:26;;;;;;;7.22;3.08;;;;;;;;;;5015165;28;20046;-79
2023/08/06 08:27:12;;;;;;;4.68;3.63;;;;;;;;;;5015466;28;20061;-80
2023/08/06 08:29:57;;;;;;;7.53;3.22;;;;;;;;;;5015522;28;20038;-77
2023/08/06 08:32:43;;;;;;;6.32;3.10;;;;;;;;;;5000970;28;20054;-78
2023/08/06 08:35:32;;;;;;;4.88;3.28;;;;;;;;;;5014554;28;20050;-77
2023/08/06 08:38:17;;;;;;;7.07;3.35;;;;;;;;;;5015083;28;20050;-75
2023/08/06 08:41:04;;;;;;;7.15;3.70;;;;;;;;;;5021561;28;20038;-75
2023/08/06 08:43:51;;;;;;;5.60;3.85;;;;;;;;;;5000365;28;20050;-74
2023/08/06 08:46:40;;;;;;;5.85;3.35;;;;;;;;;;5022291;28;20045;-76
2023/08/06 08:49:34;;;;;;;4.80;3.55;;;;;;;;;;5021341;28;20407;-80
2023/08/06 08:52:21;;;;;;;;;;;;;;;;;;5014343;28;20045;-77
2023/08/06 08:55:10;;;;;;;5.13;3.55;;;;;;;;;;5014954;28;19914;-77
2023/08/06 08:58:01;;;;;;;4.00;3.22;;;;;;;;;;5022330;28;20046;-80
2023/08/06 09:00:50;;;;;;;4.70;3.30;;;;;;;;;;5021246;28;20041;-77
2023/08/06 09:03:36;;;;;;;4.78;3.38;;;;;;;;;;5022281;28;20479;-79
2023/08/06 09:06:24;;;;;;;5.95;3.60;;;;;;;;;;5014456;28;20046;-78
2023/08/06 09:09:22;;;;;;;10.00;4.80;;;;;;;;;;5014575;28;20050;-79
2023/08/06 09:12:15;;;;;;;10.85;6.45;;;;;;;;;;5021146;28;20045;-78
2023/08/06 09:15:03;;;;;;;10.95;6.68;;;;;;;;;;5020299;28;20046;-78
2023/08/06 09:17:48;;;;;;;10.23;4.82;;;;;;;;;;5032711;28;20054;-78
2023/08/06 09:20:34;;;;;;;15.90;11.13;;;;;;;;;;5022463;28;20049;-78
2023/08/06 09:23:20;;;;;;;14.98;12.82;;;;;;;;;;5034204;28;20116;-77
2023/08/06 09:26:06;;;;;;;6.55;4.72;;;;;;;;;;5033686;28;20364;-78
2023/08/06 09:28:52;;;;;;;8.15;5.78;;;;;;;;;;5033892;28;20045;-78
2023/08/06 09:31:46;;;;;;;6.82;5.20;;;;;;;;;;5034057;28;20033;-78
2023/08/06 09:34:32;;;;;;;9.32;6.80;;;;;;;;;;5033640;28;20045;-78
2023/08/06 09:37:18;;;;;;;7.07;4.45;;;;;;;;;;5033144;28;20386;-78
2023/08/06 09:40:30;;;;;;;8.57;5.00;;;;;;;;;;5040236;28;20041;-79
2023/08/06 09:43:19;;;;;;;7.78;4.85;;;;;;;;;;5033764;28;20045;-81
2023/08/06 09:46:11;;;;;;;6.05;5.10;;;;;;;;;;5033788;28;20049;-78
2023/08/06 09:48:56;;;;;;;7.25;4.80;;;;;;;;;;5033693;28;20045;-77
2023/08/06 09:51:44;;;;;;;6.60;4.88;;;;;;;;;;5019217;28;20049;-76
2023/08/06 09:54:32;;;;;;;9.85;4.97;;;;;;;;;;5040331;28;20045;-77
2023/08/06 09:57:17;;;;;;;7.07;5.63;;;;;;;;;;5033669;28;20041;-76
2023/08/06 10:00:04;;;;;;;7.68;4.90;;;;;;;;;;5044164;28;20038;-79
2023/08/06 10:03:00;;;;;;;6.07;5.18;;;;;;;;;;5035313;28;20033;-77
2023/08/06 10:05:46;;;;;;;7.20;5.13;;;;;;;;;;5038994;28;20041;-78
2023/08/06 10:08:32;;;;;;;7.28;4.70;;;;;;;;;;5041390;28;20050;-78
2023/08/06 10:11:18;;;;;;;8.82;5.20;;;;;;;;;;5040126;28;20041;-77
2023/08/06 10:14:09;;;;;;;8.07;5.20;;;;;;;;;;5049879;28;20049;-78
2023/08/06 10:17:01;;;;;;;7.60;5.03;;;;;;;;;;5042251;28;20045;-78
2023/08/06 10:19:56;;;;;;;7.95;5.35;;;;;;;;;;5043236;28;20479;-79
2023/08/06 10:22:45;;;;;;;10.25;5.75;;;;;;;;;;5018455;28;20046;-78
2023/08/06 10:25:32;;;;;;;7.10;5.30;;;;;;;;;;5019222;28;20046;-78
2023/08/06 10:28:39;;;;;;;7.28;5.60;;;;;;;;;;5001990;28;20041;-80
2023/08/06 10:31:53;;;;;;;5.80;4.80;;;;;;;;;;5024674;28;20488;-78
2023/08/06 10:35:01;;;;;;;6.78;5.30;;;;;;;;;;5016738;28;20038;-77
2023/08/06 10:37:46;;;;;;;8.20;5.53;;;;;;;;;;5014955;28;20050;-79
2023/08/06 10:40:33;;;;;;;8.82;5.40;;;;;;;;;;5013331;28;20050;-79
2023/08/06 10:43:39;;;;;;;6.63;5.63;;;;;;;;;;5020464;28;20407;-79
2023/08/06 10:46:28;;;;;;;5.88;5.05;;;;;;;;;;5013755;28;20042;-78
2023/08/06 10:49:17;;;;;;;6.93;5.35;;;;;;;;;;5020524;28;20054;-79
2023/08/06 10:52:02;;;;;;;6.05;4.85;;;;;;;;;;5013411;28;20030;-77
2023/08/06 10:54:48;;;;;;;8.35;6.15;;;;;;;;;;5013313;28;20045;-78
2023/08/06 10:57:33;;;;;;;9.40;5.88;;;;;;;;;;5005362;28;20046;-77
2023/08/06 11:00:22;;;;;;;10.18;5.07;;;;;;;;;;5022114;28;20054;-77
2023/08/06 11:03:09;;;;;;;6.45;5.80;;;;;;;;;;5017039;28;20050;-77
2023/08/06 11:05:54;;;;;;;7.57;5.88;;;;;;;;;;5023450;28;20049;-76
2023/08/06 11:08:48;;;;;;;15.10;9.45;;;;;;;;;;5017062;28;20042;-77
2023/08/06 11:11:33;;;;;;;15.13;10.30;;;;;;;;;;5017004;28;20054;-75
2023/08/06 11:14:19;;;;;;;7.38;4.72;;;;;;;;;;5023462;28;20057;-75
2023/08/06 11:17:06;;;;;;;8.13;5.85;;;;;;;;;;5023285;28;20050;-75
2023/08/06 11:19:52;;;;;;;6.53;5.07;;;;;;;;;;5016519;28;20042;-76
2023/08/06 11:22:38;;;;;;;12.95;8.05;;;;;;;;;;5042861;28;20053;-76
2023/08/06 11:25:23;;;;;;;6.55;4.53;;;;;;;;;;5033715;28;20038;-77
2023/08/06 11:28:09;;;;;;;6.38;4.28;;;;;;;;;;5034740;28;20049;-77
2023/08/06 11:30:56;;;;;;;6.75;5.78;;;;;;;;;;5045800;28;20045;-77
2023/08/06 11:33:42;;;;;;;6.57;5.15;;;;;;;;;;5041751;28;20049;-76
2023/08/06 11:36:40;;;;;;;8.48;5.55;;;;;;;;;;5036060;28;20041;-76
2023/08/06 11:39:25;;;;;;;8.20;6.15;;;;;;;;;;5034340;28;20050;-76
2023/08/06 11:42:12;;;;;;;7.82;5.15;;;;;;;;;;5034920;28;20053;-76
2023/08/06 11:44:57;;;;;;;6.85;5.43;;;;;;;;;;5035861;28;20041;-75
2023/08/06 11:47:50;;;;;;;7.10;5.13;;;;;;;;;;5042406;28;20037;-75
2023/08/06 11:50:38;;;;;;;9.30;5.20;;;;;;;;;;5035994;28;20037;-74
2023/08/06 11:53:28;;;;;;;10.15;5.82;;;;;;;;;;5042591;28;20483;-75
2023/08/06 11:56:14;;;;;;;12.77;6.55;;;;;;;;;;5036186;28;20053;-78
2023/08/06 11:59:00;;;;;;;8.90;6.28;;;;;;;;;;5042847;28;20049;-76
2023/08/06 12:01:46;;;;;;;8.05;5.25;;;;;;;;;;5035401;28;20046;-76
2023/08/06 12:04:32;;;;;;;7.32;5.25;;;;;;;;;;5042140;28;20041;-76
2023/08/06 12:07:18;;;;;;;8.43;5.95;;;;;;;;;;5035578;28;20045;-77
2023/08/06 12:10:04;;;;;;;8.68;6.18;;;;;;;;;;5035190;28;20402;-77
2023/08/06 12:12:49;;;;;;;10.57;5.88;;;;;;;;;;5040545;28;20045;-76
2023/08/06 12:15:34;;;;;;;6.97;6.18;;;;;;;;;;5041868;28;20049;-76
2023/08/06 12:18:20;;;;;;;7.90;6.05;;;;;;;;;;5041967;28;20037;-76
2023/08/06 12:21:05;;;;;;;8.02;5.85;;;;;;;;;;5028097;28;20058;-76
2023/08/06 12:23:51;;;;;;;6.75;6.00;;;;;;;;;;5015325;28;20484;-77
2023/08/06 12:26:37;;;;;;;7.38;5.82;;;;;;;;;;5015399;28;20045;-78
2023/08/06 12:29:22;;;;;;;8.05;6.35;;;;;;;;;;5015732;28;20050;-77
2023/08/06 12:32:08;;;;;;;7.68;6.70;;;;;;;;;;4999605;28;20053;-77
2023/08/06 12:34:54;;;;;;;5.53;3.90;;;;;;;;;;5014887;28;20042;-75
2023/08/06 12:37:39;;;;;;;6.80;2.20;;;;;;;;;;5022031;28;20057;-77
2023/08/06 12:40:26;;;;;;;2.58;1.85;;;;;;;;;;5015668;28;20391;-79
2023/08/06 12:43:11;;;;;;;5.80;2.10;;;;;;;;;;5021838;28;20041;-79
2023/08/06 12:45:57;;;;;;;4.07;2.35;;;;;;;;;;5014407;28;20045;-79
2023/08/06 12:48:44;;;;;;;2.30;1.98;;;;;;;;;;5013900;28;20395;-78
2023/08/06 12:51:29;;;;;;;4.90;2.03;;;;;;;;;;5021964;28;20054;-79
2023/08/06 12:54:17;;;;;;;3.90;1.80;;;;;;;;;;5015370;28;20491;-79
2023/08/06 12:57:03;;;;;;;2.83;1.70;;;;;;;;;;5015872;28;20042;-79
2023/08/06 12:59:48;;;;;;;6.30;1.90;;;;;;;;;;5015565;28;20045;-81
2023/08/06 13:02:33;;;;;;;2.03;1.75;;;;;;;;;;5021865;28;20038;-80
2023/08/06 13:05:19;;;;;;;3.55;1.45;;;;;;;;;;5000186;28;20049;-79
2023/08/06 13:08:05;;;;;;;2.00;1.77;;;;;;;;;;5021856;28;20070;-80
2023/08/06 13:10:50;;;;;;;4.82;2.33;;;;;;;;;;5014451;28;20050;-80
2023/08/06 13:13:36;;;;;;;8.68;2.72;;;;;;;;;;5015249;28;20042;-77
2023/08/06 13:16:21;;;;;;;3.50;2.50;;;;;;;;;;5017639;28;20042;-76
2023/08/06 13:19:10;;;;;;;4.07;2.50;;;;;;;;;;5014437;28;20045;-76
2023/08/06 13:22:05;;;;;;;7.40;2.60;;;;;;;;;;5030569;28;20049;-75
2023/08/06 13:24:50;;;;;;;;;;;;;;;;;;5034618;28;20041;-76
2023/08/06 13:27:36;;;;;;;6.03;2.20;;;;;;;;;;5034862;28;20423;-75
2023/08/06 13:30:22;;;;;;;3.15;2.25;;;;;;;;;;5034667;28;20378;-75
2023/08/06 13:33:09;;;;;;;5.30;2.10;;;;;;;;;;5035327;28;20045;-76
2023/08/06 13:35:55;;;;;;;2.80;1.95;;;;;;;;;;5036496;28;20049;-78
2023/08/06 13:38:40;;;;;;;8.70;2.10;;;;;;;;;;5041509;28;20042;-80
2023/08/06 13:41:25;;;;;;;7.57;2.20;;;;;;;;;;5043309;28;20482;-80
2023/08/06 13:44:13;;;;;;;2.25;2.00;;;;;;;;;;5048494;28;20029;-81
2023/08/06 13:46:59;;;;;;;2.60;1.73;;;;;;;;;;5042271;28;20045;-77
2023/08/06 13:49:44;;;;;;;4.78;2.00;;;;;;;;;;5043825;28;20041;-77
2023/08/06 13:52:30;;;;;;;1.75;1.60;;;;;;;;;;5029448;28;20049;-76
2023/08/06 13:55:15;;;;;;;2.70;1.60;;;;;;;;;;5037227;28;20085;-76
2023/08/06 13:58:01;;;;;;;4.93;1.85;;;;;;;;;;5038609;28;20041;-77
2023/08/06 14:00:46;;;;;;;2.15;1.73;;;;;;;;;;5043902;28;20045;-77
2023/08/06 14:03:32;;;;;;;3.60;1.98;;;;;;;;;;5037082;28;20049;-77
2023/08/06 14:06:17;;;;;;;2.15;1.77;;;;;;;;;;5030602;28;20041;-78
2023/08/06 14:09:04;;;;;;;2.38;1.85;;;;;;;;;;5045150;28;20399;-78
2023/08/06 14:11:49;;;;;;;2.63;1.90;;;;;;;;;;5040391;28;20049;-77
2023/08/06 14:14:34;;;;;;;3.42;2.00;;;;;;;;;;5036613;28;20037;-77
2023/08/06 14:17:20;;;;;;;2.05;1.85;;;;;;;;;;5039177;28;20045;-77
2023/08/06 14:20:09;;;;;;;2.40;1.80;;;;;;;;;;5041869;28;20495;-77
2023/08/06 14:22:54;;;;;;;2.90;1.75;;;;;;;;;;5019186;28;20071;-77
2023/08/06 14:25:40;;;;;;;3.42;1.98;;;;;;;;;;5016010;28;20050;-75
2023/08/06 14:28:26;;;;;;;2.88;1.80;;;;;;;;;;5023710;28;20041;-76
2023/08/06 14:31:12;;;;;;;2.05;1.75;;;;;;;;;;5029569;28;20384;-75
2023/08/06 14:33:58;;;;;;;3.47;2.30;;;;;;;;;;5028007;28;20046;-76
2023/08/06 14:36:43;;;;;;;3.70;2.05;;;;;;;;;;5025167;28;20045;-76
2023/08/06 14:39:29;;;;;;;2.00;1.75;;;;;;;;;;5020865;28;20046;-75
2023/08/06 14:42:18;;;;;;;2.20;1.90;;;;;;;;;;5018423;28;20045;-76
2023/08/06 14:45:03;;;;;;;2.83;1.90;;;;;;;;;;5024318;28;20046;-75
2023/08/06 14:47:49;;;;;;;3.08;1.83;;;;;;;;;;5017056;28;20049;-76
2023/08/06 14:50:34;;;;;;;3.03;2.03;;;;;;;;;;5017241;28;20053;-77
2023/08/06 14:53:19;;;;;;;5.43;3.40;;;;;;;;;;5023913;28;20038;-75
2023/08/06 14:56:07;;;;;;;6.00;4.10;;;;;;;;;;5017042;28;20046;-77
2023/08/06 14:58:52;;;;;;;2.05;1.80;;;;;;;;;;5017207;28;20058;-77
2023/08/06 15:01:37;;;;;;;7.00;3.88;;;;;;;;;;5016991;28;20038;-77
2023/08/06 15:04:24;;;;;;;2.63;1.92;;;;;;;;;;5022877;28;20053;-74
2023/08/06 15:07:09;;;;;;;2.38;1.88;;;;;;;;;;5023717;28;20050;-74
2023/08/06 15:09:55;;;;;;;1.77;1.67;;;;;;;;;;5015659;28;20038;-72
2023/08/06 15:12:41;;;;;;;7.85;1.88;;;;;;;;;;5023165;28;20042;-74
2023/08/06 15:15:27;;;;;;;4.95;2.10;;;;;;;;;;5023286;28;20041;-73
2023/08/06 15:18:12;;;;;;;2.95;1.92;;;;;;;;;;5016783;28;20475;-76
2023/08/06 15:20:58;;;;;;;3.05;1.85;;;;;;;;;;5021824;28;20053;-76
2023/08/06 15:24:08;;;;;;;4.38;2.20;;;;;;;;;;5014799;28;20480;-75
2023/08/06 15:26:54;;;;;;;5.13;2.70;;;;;;;;;;5015823;28;20046;-75
2023/08/06 15:29:39;;;;;;;3.55;2.30;;;;;;;;;;5015997;28;20054;-73
2023/08/06 15:32:27;;;;;;;5.30;2.47;;;;;;;;;;5014743;28;20399;-73
2023/08/06 15:35:13;;;;;;;8.48;3.58;;;;;;;;;;5021829;28;20049;-72
2023/08/06 15:37:59;;;;;;;5.63;1.67;;;;;;;;;;5000235;28;20046;-71
2023/08/06 15:40:45;;;;;;;1.38;0.88;;;;;;;;;;5016061;28;20050;-73
2023/08/06 15:43:30;;;;;;;2.83;1.40;;;;;;;;;;5023174;28;20395;-74
2023/08/06 15:46:16;;;;;;;4.35;3.00;;;;;;;;;;5014539;28;20496;-75
2023/08/06 15:49:02;;;;;;;6.80;4.32;;;;;;;;;;5015863;28;20038;-75
2023/08/06 15:51:47;;;;;;;10.00;5.30;;;;;;;;;;5016001;28;20403;-74
2023/08/06 15:54:33;;;;;;;8.15;5.22;;;;;;;;;;5015983;28;20050;-71
2023/08/06 15:57:18;;;;;;;7.13;5.10;;;;;;;;;;5016807;28;20045;-73
2023/08/06 16:00:05;;;;;;;12.85;4.70;;;;;;;;;;5017672;28;20050;-74
2023/08/06 16:03:03;;;;;;;8.25;3.78;;;;;;;;;;5022195;28;20034;-75
2023/08/06 16:05:48;;;;;;;4.55;3.10;;;;;;;;;;5015642;28;20046;-73
2023/08/06 16:08:34;;;;;;;9.32;3.20;;;;;;;;;;5022479;28;20046;-74
2023/08/06 16:11:19;;;;;;;6.25;2.70;;;;;;;;;;5015670;28;20049;-72
2023/08/06 16:14:05;;;;;;;7.35;3.25;;;;;;;;;;5014205;28;20041;-74
2023/08/06 16:16:56;;;;;;;9.60;3.58;;;;;;;;;;5022484;28;20045;-74
2023/08/06 16:19:42;;;;;;;5.78;3.63;;;;;;;;;;5021652;28;20042;-74
2023/08/06 16:22:28;;;;;;;5.90;3.30;;;;;;;;;;5015200;28;20050;-72
2023/08/06 16:25:13;;;;;;;6.00;3.60;;;;;;;;;;5015416;28;20037;-71
2023/08/06 16:27:58;;;;;;;6.22;4.60;;;;;;;;;;5015439;28;20050;-72
2023/08/06 16:30:45;;;;;;;7.28;4.35;;;;;;;;;;5015164;28;20046;-75
2023/08/06 16:33:31;;;;;;;5.60;4.22;;;;;;;;;;5015174;28;20046;-75
2023/08/06 16:36:16;;;;;;;7.28;4.65;;;;;;;;;;5014841;28;20046;-74
2023/08/06 16:39:02;;;;;;;5.18;4.10;;;;;;;;;;5015397;28;20487;-73
2023/08/06 16:41:58;;;;;;;7.28;5.13;;;;;;;;;;5015238;28;20038;-76